DL9GJ-6 Weather Reports


time (UTC)temp
C
wind
direction
speed
KPH
gust
KPH
rain 1hr
cm
rain 24hr
cm
rain mn
cm
humidity
%
barometer
mb
20190420141145 22 102 8.0 14.5 0.00 0.00 0.00 32 1024.7
20190420141038 22 102 8.0 14.5 0.00 0.00 0.00 32 1024.7
20190420140546 23 28 8.0 12.9 0.00 0.00 0.00 27 1024.8
20190420135946 23 88 12.9 16.1 0.00 0.00 0.00 31 1025.0
20190420135839 23 88 12.9 16.1 0.00 0.00 0.00 31 1025.0
20190420135345 23 76 14.5 20.9 0.00 0.00 0.00 29 1025.1
20190420134746 23 94 12.9 19.3 0.00 0.00 0.00 33 1025.1
20190420134146 22 88 4.8 11.3 0.00 0.00 0.00 30 1025.1
20190420134040 22 88 4.8 11.3 0.00 0.00 0.00 30 1025.1
20190420133546 22 50 12.9 22.5 0.00 0.00 0.00 28 1025.1
20190420132946 23 92 12.9 20.9 0.00 0.00 0.00 30 1025.3
20190420132346 22 116 4.8 12.9 0.00 0.00 0.00 33 1025.3
20190420132238 22 116 4.8 12.9 0.00 0.00 0.00 33 1025.3
20190420131745 22 51 6.4 14.5 0.00 0.00 0.00 30 1025.3
20190420131640 22 51 6.4 14.5 0.00 0.00 0.00 30 1025.3
20190420131146 22 57 8.0 17.7 0.00 0.00 0.00 30 1025.4
20190420131038 22 57 8.0 17.7 0.00 0.00 0.00 30 1025.4
20190420130546 22 82 3.2 14.5 0.00 0.00 0.00 31 1025.4
20190420125945 22 120 4.8 14.5 0.00 0.00 0.00 33 1025.5
20190420125841 22 120 4.8 14.5 0.00 0.00 0.00 33 1025.5
20190420125345 22 140 11.3 20.9 0.00 0.00 0.00 35 1025.5
20190420124745 22 30 6.4 14.5 0.00 0.00 0.00 30 1025.5
20190420124145 22 101 9.7 19.3 0.00 0.00 0.00 31 1025.5
20190420124038 22 101 9.7 19.3 0.00 0.00 0.00 31 1025.5
20190420123546 22 101 9.7 16.1 0.00 0.00 0.00 34 1025.6
20190420123439 22 112 8.0 17.7 0.00 0.00 0.00 31 1025.6
20190420122946 22 78 11.3 27.4 0.00 0.00 0.00 35 1025.6
20190420122346 22 38 8.0 19.3 0.00 0.00 0.00 31 1025.6
20190420121746 22 122 14.5 24.1 0.00 0.00 0.00 36 1025.6
20190420121639 22 122 14.5 24.1 0.00 0.00 0.00 36 1025.6
20190420121145 22 113 16.1 22.5 0.00 0.00 0.00 35 1025.7
20190420121039 22 113 16.1 22.5 0.00 0.00 0.00 35 1025.7
20190420120545 22 112 11.3 17.7 0.00 0.00 0.00 38 1025.8
20190420115946 21 120 12.9 17.7 0.00 0.00 0.00 37 1025.9
20190420115345 21 55 14.5 22.5 0.00 0.00 0.00 36 1026.0
20190420114745 21 83 9.7 17.7 0.00 0.00 0.00 37 1026.0
20190420114146 21 71 12.9 22.5 0.00 0.00 0.00 36 1026.1
20190420113545 21 92 6.4 19.3 0.00 0.00 0.00 36 1026.1
20190420112945 21 87 11.3 20.9 0.00 0.00 0.00 41 1026.2
20190420112346 21 109 6.4 14.5 0.00 0.00 0.00 42 1026.2
20190420111746 21 91 8.0 20.9 0.00 0.00 0.00 39 1026.3
20190420111637 21 91 8.0 20.9 0.00 0.00 0.00 39 1026.3
20190420111145 20 107 3.2 14.5 0.00 0.00 0.00 42 1026.4
20190420110545 20 132 12.9 20.9 0.00 0.00 0.00 43 1026.4
20190420105945 20 92 11.3 24.1 0.00 0.00 0.00 44 1026.4
20190420105345 20 123 6.4 16.1 0.00 0.00 0.00 44 1026.5
20190420104746 20 109 11.3 16.1 0.00 0.00 0.00 43 1026.5
20190420104146 20 100 14.5 24.1 0.00 0.00 0.00 41 1026.6
20190420103546 19 26 6.4 14.5 0.00 0.00 0.00 44 1026.5
20190420102946 18 78 8.0 14.5 0.00 0.00 0.00 44 1026.6
20190420102838 18 78 8.0 14.5 0.00 0.00 0.00 44 1026.6
20190420102345 18 74 9.7 19.3 0.00 0.00 0.00 47 1026.7
20190420101745 18 126 11.3 16.1 0.00 0.00 0.00 47 1026.7
20190420101146 18 24 6.4 17.7 0.00 0.00 0.00 46 1026.7
20190420100545 17 84 8.0 16.1 0.00 0.00 0.00 47 1026.7
20190420100438 17 44 9.7 19.3 0.00 0.00 0.00 46 1026.8
20190420095946 17 55 6.4 16.1 0.00 0.00 0.00 47 1026.7
20190420095345 17 93 8.0 16.1 0.00 0.00 0.00 47 1026.8
20190420094745 17 46 6.4 14.5 0.00 0.00 0.00 48 1026.8
20190420094146 17 45 9.7 16.1 0.00 0.00 0.00 48 1026.8
20190420093545 17 95 6.4 14.5 0.00 0.00 0.00 48 1026.9
20190420093437 17 85 12.9 19.3 0.00 0.00 0.00 49 1026.9
20190420092945 16 83 6.4 12.9 0.00 0.00 0.00 49 1026.9
20190420092838 16 83 6.4 12.9 0.00 0.00 0.00 49 1026.9
20190420092346 16 88 6.4 16.1 0.00 0.00 0.00 49 1027.0
20190420092237 16 88 6.4 16.1 0.00 0.00 0.00 49 1027.0
20190420091746 16 47 4.8 11.3 0.00 0.00 0.00 50 1027.1
20190420091145 16 53 6.4 16.1 0.00 0.00 0.00 49 1027.1
20190420090545 16 35 4.8 14.5 0.00 0.00 0.00 49 1027.2
20190420085945 16 60 4.8 14.5 0.00 0.00 0.00 52 1027.2
20190420085346 15 24 8.0 12.9 0.00 0.00 0.00 51 1027.2
20190420085237 15 24 8.0 12.9 0.00 0.00 0.00 51 1027.2
20190420084745 15 41 6.4 12.9 0.00 0.00 0.00 51 1027.2
20190420084145 15 65 9.7 14.5 0.00 0.00 0.00 50 1027.2
20190420084038 15 65 9.7 14.5 0.00 0.00 0.00 50 1027.2
20190420083546 15 27 6.4 17.7 0.00 0.00 0.00 52 1027.2
20190420083437 15 45 9.7 17.7 0.00 0.00 0.00 50 1027.3
20190420082946 15 44 9.7 16.1 0.00 0.00 0.00 50 1027.3
20190420082837 15 44 9.7 16.1 0.00 0.00 0.00 50 1027.3
20190420082345 15 46 9.7 14.5 0.00 0.00 0.00 51 1027.4
20190420082237 15 46 9.7 14.5 0.00 0.00 0.00 51 1027.4
20190420081745 15 32 4.8 11.3 0.00 0.00 0.00 52 1027.3
20190420081145 15 360 3.2 11.3 0.00 0.00 0.00 52 1027.3
20190420081037 15 360 3.2 11.3 0.00 0.00 0.00 52 1027.3
20190420080546 15 84 3.2 6.4 0.00 0.00 0.00 52 1027.4
20190420080437 15 34 3.2 6.4 0.00 0.00 0.00 52 1027.4
20190420075945 15 88 4.8 12.9 0.00 0.00 0.00 53 1027.4
20190420075344 15 90 4.8 9.7 0.00 0.00 0.00 52 1027.4
20190420075238 15 90 4.8 9.7 0.00 0.00 0.00 52 1027.4
20190420074745 14 101 4.8 9.7 0.00 0.00 0.00 54 1027.4
20190420074722 14 101 4.8 9.7 0.00 0.00 0.00 54 1027.4
20190420074639 14 101 4.8 9.7 0.00 0.00 0.00 54 1027.4
20190420074145 14 78 4.8 8.0 0.00 0.00 0.00 55 1027.4
20190420073545 13 131 4.8 8.0 0.00 0.00 0.00 59 1027.4
20190420073437 13 133 3.2 6.4 0.00 0.00 0.00 58 1027.4
20190420072945 13 125 4.8 6.4 0.00 0.00 0.00 60 1027.5
20190420072839 13 125 4.8 6.4 0.00 0.00 0.00 60 1027.5
20190420072345 13 86 3.2 6.4 0.00 0.00 0.00 61 1027.5
20190420072239 13 86 3.2 6.4 0.00 0.00 0.00 61 1027.5
20190420071746 12 132 1.6 4.8 0.00 0.00 0.00 62 1027.4
20190420071146 12 132 0.0 3.2 0.00 0.00 0.00 63 1027.5
20190420071039 12 132 0.0 3.2 0.00 0.00 0.00 63 1027.5
20190420070544 11 132 0.0 0.0 0.00 0.00 0.00 65 1027.4
20190420070438 11 132 0.0 0.0 0.00 0.00 0.00 66 1027.4
20190420065946 11 132 0.0 0.0 0.00 0.00 0.00 68 1027.5
20190420065345 10 132 0.0 0.0 0.00 0.00 0.00 70 1027.5
20190420065239 10 132 0.0 0.0 0.00 0.00 0.00 70 1027.5
20190420064745 9 132 0.0 1.6 0.00 0.00 0.00 71 1027.5
20190420064145 8 132 1.6 3.2 0.00 0.00 0.00 74 1027.5
20190420064040 8 132 1.6 3.2 0.00 0.00 0.00 74 1027.5
20190420063545 8 132 1.6 3.2 0.00 0.00 0.00 77 1027.6
20190420063438 8 132 1.6 3.2 0.00 0.00 0.00 79 1027.5
20190420062946 7 132 3.2 4.8 0.00 0.00 0.00 80 1027.5
20190420062837 7 132 3.2 4.8 0.00 0.00 0.00 80 1027.5
20190420062345 7 132 3.2 4.8 0.00 0.00 0.00 82 1027.5
20190420062237 7 132 3.2 4.8 0.00 0.00 0.00 82 1027.5
20190420061746 6 132 3.2 4.8 0.00 0.00 0.00 83 1027.4
20190420061637 6 132 3.2 4.8 0.00 0.00 0.00 83 1027.4
20190420061146 6 132 3.2 4.8 0.00 0.00 0.00 84 1027.5
20190420061038 6 132 3.2 4.8 0.00 0.00 0.00 84 1027.5
20190420060545 5 132 3.2 4.8 0.00 0.00 0.00 85 1027.4
20190420055945 5 132 3.2 4.8 0.00 0.00 0.00 87 1027.5
20190420055346 4 132 1.6 4.8 0.00 0.00 0.00 87 1027.5
20190420054746 3 132 3.2 4.8 0.00 0.00 0.00 88 1027.5
20190420054145 3 138 3.2 4.8 0.00 0.00 0.00 89 1027.4
20190420054042 3 138 3.2 4.8 0.00 0.00 0.00 89 1027.4
20190420053545 3 138 4.8 4.8 0.00 0.00 0.00 90 1027.4
20190420052945 2 138 1.6 4.8 0.00 0.00 0.00 89 1027.5
20190420052346 2 138 1.6 4.8 0.00 0.00 0.00 89 1027.5
20190420052237 2 138 1.6 4.8 0.00 0.00 0.00 89 1027.5
20190420051745 2 138 4.8 6.4 0.00 0.00 0.00 90 1027.4
20190420051638 2 138 4.8 6.4 0.00 0.00 0.00 90 1027.4
20190420051145 2 138 3.2 6.4 0.00 0.00 0.00 89 1027.4
20190420051039 2 138 3.2 6.4 0.00 0.00 0.00 89 1027.4
20190420050545 2 138 3.2 6.4 0.00 0.00 0.00 89 1027.3
20190420045946 2 138 1.6 4.8 0.00 0.00 0.00 89 1027.3
20190420045346 2 138 3.2 4.8 0.00 0.00 0.00 89 1027.2
20190420045240 2 138 3.2 4.8 0.00 0.00 0.00 89 1027.2
20190420044745 2 138 0.0 1.6 0.00 0.00 0.00 89 1027.1
20190420044639 2 138 0.0 1.6 0.00 0.00 0.00 89 1027.1
20190420044146 2 138 0.0 0.0 0.00 0.00 0.00 89 1027.1
20190420044037 2 138 0.0 0.0 0.00 0.00 0.00 89 1027.1
20190420043546 2 138 0.0 0.0 0.00 0.00 0.00 89 1027.1
20190420042945 2 138 0.0 1.6 0.00 0.00 0.00 89 1027.0
20190420042838 2 138 0.0 1.6 0.00 0.00 0.00 89 1027.0
20190420042346 2 138 0.0 3.2 0.00 0.00 0.00 89 1027.0
20190420041746 2 138 1.6 4.8 0.00 0.00 0.00 88 1027.0
20190420041638 2 138 1.6 4.8 0.00 0.00 0.00 88 1027.0
20190420041145 2 138 1.6 3.2 0.00 0.00 0.00 88 1027.0
20190420041037 2 138 1.6 3.2 0.00 0.00 0.00 88 1027.0
20190420040546 2 138 0.0 1.6 0.00 0.00 0.00 88 1027.0
20190420035946 2 138 0.0 0.0 0.00 0.00 0.00 88 1027.0
20190420035838 2 138 0.0 0.0 0.00 0.00 0.00 88 1027.0
20190420035345 2 138 0.0 1.6 0.00 0.00 0.00 88 1027.0
20190420035239 2 138 0.0 1.6 0.00 0.00 0.00 88 1027.0
20190420034745 2 138 3.2 4.8 0.00 0.00 0.00 88 1027.0
20190420034638 2 138 3.2 4.8 0.00 0.00 0.00 88 1027.0
20190420034145 2 138 3.2 6.4 0.00 0.00 0.00 88 1027.0
20190420033545 2 138 4.8 6.4 0.00 0.00 0.00 88 1027.0
20190420033438 2 137 4.8 6.4 0.00 0.00 0.00 88 1027.1
20190420032945 2 139 4.8 6.4 0.00 0.00 0.00 87 1027.1
20190420032345 2 140 3.2 4.8 0.00 0.00 0.00 87 1027.1
20190420031746 2 140 3.2 4.8 0.00 0.00 0.00 87 1027.1
20190420031640 2 140 3.2 4.8 0.00 0.00 0.00 87 1027.1
20190420031146 2 140 0.0 1.6 0.00 0.00 0.00 87 1027.1
20190420031038 2 140 0.0 1.6 0.00 0.00 0.00 87 1027.1
20190420030545 3 140 1.6 4.8 0.00 0.00 0.00 87 1027.1
20190420030441 3 140 4.8 6.4 0.00 0.00 0.00 88 1027.1
20190420025946 3 139 6.4 8.0 0.00 0.00 0.00 88 1027.1
20190420025345 3 142 4.8 6.4 0.00 0.00 0.00 88 1027.2
20190420025240 3 142 4.8 6.4 0.00 0.00 0.00 88 1027.2
20190420024745 3 144 6.4 8.0 0.00 0.00 0.00 87 1027.2
20190420024639 3 144 6.4 8.0 0.00 0.00 0.00 87 1027.2
20190420024146 3 141 4.8 6.4 0.00 0.00 0.00 87 1027.1
20190420023546 3 141 4.8 8.0 0.00 0.00 0.00 87 1027.1
20190420023440 3 139 1.6 3.2 0.00 0.00 0.00 86 1027.1
20190420022946 3 139 1.6 3.2 0.00 0.00 0.00 86 1027.1
20190420022839 3 139 1.6 3.2 0.00 0.00 0.00 86 1027.1
20190420022346 3 139 0.0 0.0 0.00 0.00 0.00 86 1027.1
20190420022238 3 139 0.0 0.0 0.00 0.00 0.00 86 1027.1
20190420021745 3 139 0.0 0.0 0.00 0.00 0.00 86 1027.1
20190420021639 3 139 0.0 0.0 0.00 0.00 0.00 86 1027.1
20190420021145 3 139 1.6 4.8 0.00 0.00 0.00 86 1027.1
20190420021037 3 139 1.6 4.8 0.00 0.00 0.00 86 1027.1
20190420020545 3 139 3.2 4.8 0.00 0.00 0.00 86 1027.0
20190420015946 3 139 1.6 3.2 0.00 0.00 0.00 84 1027.0
20190420015837 3 139 1.6 3.2 0.00 0.00 0.00 84 1027.0
20190420015346 3 139 1.6 3.2 0.00 0.00 0.00 84 1026.9
20190420014745 4 139 3.2 4.8 0.00 0.00 0.00 84 1026.9
20190420014145 4 139 3.2 6.4 0.00 0.00 0.00 83 1026.9
20190420014039 4 139 3.2 6.4 0.00 0.00 0.00 83 1026.9
20190420013545 4 139 3.2 4.8 0.00 0.00 0.00 81 1026.9
20190420013438 4 139 1.6 3.2 0.00 0.00 0.00 80 1026.8
20190420012946 4 139 1.6 4.8 0.00 0.00 0.00 82 1026.9
20190420012837 4 139 1.6 4.8 0.00 0.00 0.00 82 1026.9
20190420012345 4 139 1.6 6.4 0.00 0.00 0.00 83 1026.7
20190420011745 4 139 3.2 4.8 0.00 0.00 0.00 84 1026.7
20190420011639 4 139 3.2 4.8 0.00 0.00 0.00 84 1026.7
20190420011146 4 139 0.0 3.2 0.00 0.00 0.00 84 1026.7
20190420011037 4 139 0.0 3.2 0.00 0.00 0.00 84 1026.7
20190420010546 4 139 0.0 0.0 0.00 0.00 0.00 84 1026.7
20190420010438 4 139 0.0 0.0 0.00 0.00 0.00 84 1026.7
20190420005946 4 139 0.0 0.0 0.00 0.00 0.00 83 1026.7
20190420005345 5 139 0.0 1.6 0.00 0.00 0.00 83 1026.7
20190420004745 5 139 1.6 3.2 0.00 0.00 0.00 82 1026.7
20190420004639 5 139 1.6 3.2 0.00 0.00 0.00 82 1026.7
20190420004145 5 139 1.6 3.2 0.00 0.00 0.00 81 1026.7
20190420004037 5 139 1.6 3.2 0.00 0.00 0.00 81 1026.7
20190420003545 5 139 1.6 3.2 0.00 0.00 0.00 81 1026.8
20190420003437 5 139 1.6 4.8 0.00 0.00 0.00 81 1026.8
20190420002946 5 139 1.6 3.2 0.00 0.00 0.00 81 1026.9
20190420002344 5 139 3.2 4.8 0.00 0.00 0.00 82 1026.9
20190420002239 5 139 3.2 4.8 0.00 0.00 0.00 82 1026.9
20190420001746 5 139 0.0 1.6 0.00 0.00 0.00 81 1026.8
20190420001638 5 139 0.0 1.6 0.00 0.00 0.00 81 1026.8
20190420001146 5 139 1.6 3.2 0.00 0.00 0.00 82 1026.8
20190420001038 5 139 1.6 3.2 0.00 0.00 0.00 82 1026.8
20190420000546 5 139 0.0 0.0 0.00 0.00 0.00 82 1026.8
20190419235946 5 139 0.0 0.0 0.00 0.00 0.00 81 1026.9
20190419235838 5 139 0.0 0.0 0.00 0.00 0.00 81 1026.9
20190419235345 5 139 0.0 0.0 0.00 0.00 0.00 80 1026.9
20190419234746 5 139 0.0 0.0 0.00 0.00 0.00 80 1026.9
20190419234638 5 139 0.0 0.0 0.00 0.00 0.00 80 1026.9
20190419234145 5 139 0.0 0.0 0.00 0.00 0.00 79 1027.0
20190419234039 5 139 0.0 0.0 0.00 0.00 0.00 79 1027.0
20190419233545 5 139 0.0 0.0 0.00 0.00 0.00 78 1026.9
20190419233439 5 139 0.0 0.0 0.00 0.00 0.00 78 1027.0
20190419232946 6 139 0.0 0.0 0.00 0.00 0.00 77 1027.0
20190419232840 6 139 0.0 0.0 0.00 0.00 0.00 77 1027.0
20190419232345 6 139 0.0 0.0 0.00 0.00 0.00 77 1027.0
20190419231745 6 139 0.0 0.0 0.00 0.00 0.00 77 1027.0
20190419231639 6 139 0.0 0.0 0.00 0.00 0.00 77 1027.0
20190419231146 6 139 0.0 1.6 0.00 0.00 0.00 77 1027.0
20190419231037 6 139 0.0 1.6 0.00 0.00 0.00 77 1027.0
20190419230545 6 139 1.6 4.8 0.00 0.00 0.00 77 1027.0
20190419225945 6 139 0.0 3.2 0.00 0.00 0.00 75 1027.0
20190419225837 6 139 0.0 3.2 0.00 0.00 0.00 75 1027.0
20190419225346 6 139 0.0 0.0 0.00 0.00 0.00 74 1027.0
20190419225238 6 139 0.0 0.0 0.00 0.00 0.00 74 1027.0
20190419224746 7 139 0.0 0.0 0.00 0.00 0.00 73 1027.0
20190419224145 7 139 0.0 0.0 0.00 0.00 0.00 72 1027.0
20190419224039 7 139 0.0 0.0 0.00 0.00 0.00 72 1027.0
20190419223546 7 139 0.0 1.6 0.00 0.00 0.00 72 1027.0
20190419223437 7 139 1.6 3.2 0.00 0.00 0.00 71 1027.0
20190419222946 7 139 0.0 0.0 0.00 0.00 0.00 71 1027.0
20190419222838 7 139 0.0 0.0 0.00 0.00 0.00 71 1027.0
20190419222345 7 139 0.0 0.0 0.00 0.00 0.00 70 1027.0
20190419222239 7 139 0.0 0.0 0.00 0.00 0.00 70 1027.0
20190419221746 7 139 0.0 1.6 0.00 0.00 0.00 69 1027.0
20190419221145 7 139 1.6 3.2 0.00 0.00 0.00 69 1027.0
20190419220546 8 139 1.6 3.2 0.00 0.00 0.00 68 1027.0
20190419220439 8 139 0.0 4.8 0.00 0.00 0.00 68 1027.0
20190419215946 8 139 0.0 0.0 0.00 0.00 0.00 68 1026.9
20190419215840 8 139 0.0 0.0 0.00 0.00 0.00 68 1026.9
20190419215345 8 139 0.0 0.0 0.00 0.00 0.00 67 1027.0
20190419215238 8 139 0.0 0.0 0.00 0.00 0.00 67 1027.0
20190419214746 8 139 0.0 0.0 0.00 0.00 0.00 67 1026.9
20190419214639 8 139 0.0 0.0 0.00 0.00 0.00 67 1026.9
20190419214145 8 139 1.6 3.2 0.00 0.00 0.00 67 1027.0
20190419214040 8 139 1.6 3.2 0.00 0.00 0.00 67 1027.0
20190419213545 8 139 0.0 1.6 0.00 0.00 0.00 64 1027.0
20190419213439 8 139 0.0 0.0 0.00 0.00 0.00 65 1027.1
20190419212946 9 139 0.0 1.6 0.00 0.00 0.00 64 1027.0
20190419212345 9 139 0.0 1.6 0.00 0.00 0.00 64 1027.0
20190419212239 9 139 0.0 1.6 0.00 0.00 0.00 64 1027.0
20190419211745 9 139 0.0 1.6 0.00 0.00 0.00 63 1027.0
20190419211639 9 139 0.0 1.6 0.00 0.00 0.00 63 1027.0
20190419211145 9 139 0.0 3.2 0.00 0.00 0.00 63 1026.9
20190419211039 9 139 0.0 3.2 0.00 0.00 0.00 63 1026.9
20190419210546 10 139 1.6 3.2 0.00 0.00 0.00 62 1026.9
20190419210440 10 139 0.0 1.6 0.00 0.00 0.00 61 1026.9
20190419205946 10 139 0.0 4.8 0.00 0.00 0.00 59 1026.9
20190419205838 10 139 0.0 4.8 0.00 0.00 0.00 59 1026.9
20190419205346 11 139 1.6 4.8 0.00 0.00 0.00 59 1026.9
20190419204746 11 139 1.6 6.4 0.00 0.00 0.00 55 1026.9
20190419204638 11 139 1.6 6.4 0.00 0.00 0.00 55 1026.9
20190419204146 11 129 3.2 4.8 0.00 0.00 0.00 55 1026.9
20190419204039 11 129 3.2 4.8 0.00 0.00 0.00 55 1026.9
20190419203546 11 128 3.2 4.8 0.00 0.00 0.00 56 1026.9
20190419202946 10 81 3.2 4.8 0.00 0.00 0.00 59 1026.9
20190419202345 10 81 1.6 3.2 0.00 0.00 0.00 61 1026.9
20190419202239 10 81 1.6 3.2 0.00 0.00 0.00 61 1026.9
20190419201745 10 81 0.0 3.2 0.00 0.00 0.00 60 1026.9
20190419201145 11 81 1.6 3.2 0.00 0.00 0.00 59 1026.9
20190419201040 11 81 1.6 3.2 0.00 0.00 0.00 59 1026.9
20190419200546 11 81 1.6 3.2 0.00 0.00 0.00 58 1026.9
20190419200441 11 81 0.0 0.0 0.00 0.00 0.00 57 1026.9
20190419195946 11 81 0.0 3.2 0.00 0.00 0.00 57 1026.8
20190419195839 11 81 0.0 3.2 0.00 0.00 0.00 57 1026.8
20190419195344 11 81 3.2 4.8 0.00 0.00 0.00 56 1026.8
20190419194744 12 81 3.2 4.8 0.00 0.00 0.00 55 1026.8
20190419194641 12 81 3.2 4.8 0.00 0.00 0.00 55 1026.8
20190419194145 12 80 1.6 4.8 0.00 0.00 0.00 55 1026.8
20190419194039 12 80 1.6 4.8 0.00 0.00 0.00 55 1026.8
20190419193545 12 78 3.2 4.8 0.00 0.00 0.00 54 1026.8
20190419192945 12 71 0.0 0.0 0.00 0.00 0.00 52 1026.7
20190419192840 12 71 0.0 0.0 0.00 0.00 0.00 52 1026.7
20190419192345 13 71 0.0 3.2 0.00 0.00 0.00 52 1026.7
20190419191745 13 71 1.6 3.2 0.00 0.00 0.00 52 1026.7
20190419191639 13 71 1.6 3.2 0.00 0.00 0.00 52 1026.7
20190419191146 13 71 1.6 3.2 0.00 0.00 0.00 50 1026.5
20190419191039 13 71 1.6 3.2 0.00 0.00 0.00 50 1026.5
20190419190544 13 71 0.0 3.2 0.00 0.00 0.00 52 1026.5
20190419185946 15 71 0.0 1.6 0.00 0.00 0.00 50 1026.4
20190419185839 15 71 0.0 1.6 0.00 0.00 0.00 50 1026.4
20190419185345 15 71 1.6 1.6 0.00 0.00 0.00 49 1026.3
20190419184746 15 71 0.0 0.0 0.00 0.00 0.00 47 1026.3
20190419184638 15 71 0.0 0.0 0.00 0.00 0.00 47 1026.3
20190419184145 16 71 0.0 3.2 0.00 0.00 0.00 45 1026.3
20190419183546 16 71 1.6 4.8 0.00 0.00 0.00 42 1026.2
20190419183439 17 71 1.6 4.8 0.00 0.00 0.00 39 1026.1
20190419182945 17 80 1.6 3.2 0.00 0.00 0.00 40 1026.1
20190419182346 17 80 1.6 3.2 0.00 0.00 0.00 38 1026.1
20190419181746 18 80 1.6 4.8 0.00 0.00 0.00 36 1026.0
20190419181639 18 80 1.6 4.8 0.00 0.00 0.00 36 1026.0
20190419181145 18 80 3.2 6.4 0.00 0.00 0.00 35 1026.0
20190419181038 18 80 3.2 6.4 0.00 0.00 0.00 35 1026.0
20190419180544 18 80 3.2 6.4 0.00 0.00 0.00 34 1025.9
20190419180441 18 78 3.2 6.4 0.00 0.00 0.00 34 1025.9
20190419175946 18 78 3.2 6.4 0.00 0.00 0.00 34 1025.9
20190419175838 18 78 3.2 6.4 0.00 0.00 0.00 34 1025.9
20190419175346 19 42 3.2 8.0 0.00 0.00 0.00 34 1025.8
20190419174745 19 76 3.2 11.3 0.00 0.00 0.00 33 1025.8
20190419174639 19 76 3.2 11.3 0.00 0.00 0.00 33 1025.8
20190419174145 19 95 8.0 11.3 0.00 0.00 0.00 34 1025.7
20190419173546 20 82 4.8 9.7 0.00 0.00 0.00 34 1025.7
20190419172944 20 15 4.8 9.7 0.00 0.00 0.00 34 1025.7
20190419172346 20 59 3.2 14.5 0.00 0.00 0.00 32 1025.6
20190419172241 20 59 3.2 14.5 0.00 0.00 0.00 32 1025.6
20190419171746 20 96 6.4 16.1 0.00 0.00 0.00 32 1025.5
20190419171145 20 91 9.7 16.1 0.00 0.00 0.00 32 1025.6
20190419170546 21 52 6.4 12.9 0.00 0.00 0.00 32 1025.5
20190419165945 21 67 6.4 11.3 0.00 0.00 0.00 31 1025.6
20190419165840 21 67 6.4 11.3 0.00 0.00 0.00 31 1025.6
20190419165345 21 44 4.8 8.0 0.00 0.00 0.00 32 1025.6
20190419164746 21 80 6.4 19.3 0.00 0.00 0.00 32 1025.6
20190419164637 21 80 6.4 19.3 0.00 0.00 0.00 32 1025.6
20190419164145 21 121 6.4 14.5 0.00 0.00 0.00 33 1025.6
20190419163545 21 76 6.4 11.3 0.00 0.00 0.00 34 1025.6
20190419163437 21 90 9.7 16.1 0.00 0.00 0.00 31 1025.6
20190419162945 21 49 6.4 12.9 0.00 0.00 0.00 31 1025.6
20190419162836 21 49 6.4 12.9 0.00 0.00 0.00 31 1025.6
20190419162344 22 112 6.4 14.5 0.00 0.00 0.00 32 1025.6
20190419162239 22 112 6.4 14.5 0.00 0.00 0.00 32 1025.6
20190419161745 22 80 8.0 14.5 0.00 0.00 0.00 31 1025.7
20190419161639 22 80 8.0 14.5 0.00 0.00 0.00 31 1025.7
20190419161146 22 104 4.8 12.9 0.00 0.00 0.00 34 1025.7
20190419160546 22 32 4.8 11.3 0.00 0.00 0.00 31 1025.7
20190419160439 22 102 4.8 12.9 0.00 0.00 0.00 32 1025.6
20190419155946 22 111 11.3 17.7 0.00 0.00 0.00 33 1025.7
20190419155346 22 84 9.7 16.1 0.00 0.00 0.00 33 1025.7
20190419155237 22 84 9.7 16.1 0.00 0.00 0.00 33 1025.7
20190419154745 22 34 3.2 12.9 0.00 0.00 0.00 31 1025.7
20190419154146 22 56 3.2 11.3 0.00 0.00 0.00 30 1025.7
20190419153545 22 106 4.8 12.9 0.00 0.00 0.00 32 1025.7
20190419153437 22 107 8.0 14.5 0.00 0.00 0.00 34 1025.7
20190419152947 22 114 8.0 14.5 0.00 0.00 0.00 33 1025.7
20190419152345 22 57 4.8 11.3 0.00 0.00 0.00 32 1025.7
20190419151745 22 87 4.8 11.3 0.00 0.00 0.00 30 1025.7
20190419151144 22 42 6.4 12.9 0.00 0.00 0.00 34 1025.8
20190419150546 23 67 3.2 14.5 0.00 0.00 0.00 30 1025.7
20190419150440 23 92 6.4 12.9 0.00 0.00 0.00 32 1025.8
20190419145946 23 94 4.8 12.9 0.00 0.00 0.00 30 1025.8
20190419145838 23 94 4.8 12.9 0.00 0.00 0.00 30 1025.8
20190419145345 23 103 8.0 19.3 0.00 0.00 0.00 33 1025.8
20190419144746 23 136 1.6 3.2 0.00 0.00 0.00 31 1025.8
20190419144145 23 141 3.2 8.0 0.00 0.00 0.00 32 1025.9
20190419144039 23 141 3.2 8.0 0.00 0.00 0.00 32 1025.9
20190419143546 23 159 3.2 9.7 0.00 0.00 0.00 31 1025.9
20190419142945 23 148 4.8 12.9 0.00 0.00 0.00 32 1026.0
20190419142346 23 146 12.9 17.7 0.00 0.00 0.00 33 1026.0
20190419141746 23 120 6.4 17.7 0.00 0.00 0.00 32 1026.0